Monrovia, Liberia

86°F / 30°C
Mostly Cloudy
Heat Index: 97°F / 36°C
Humidity: 74%
Dew Point: 77°F / 25°C
Wind: North at 0 mph / 0 km/h
Pressure: 29.92 in / 1013 hPa (Steady)
Visibility: 6.2 miles / 10.0 kilometers
Clouds: Mostly Cloudy (BKN) : 1800 ft / 548 m
Yesterday's Maximum: 88°F / 31°C
Yesterday's Minimum: 75°F / 24°C approx.
Yesterday's Cooling Degree Days: 17 approx.
UV: 6 out of 16
Sunrise:6:26 AM GMT
Sunset:6:52 PM GMT
Moon Rise:12:19 PM GMT
Moon Set:12:05 AM GMT
Moon Phase Waxing Crescent
NOAA Weather Radio
No local feed.
METAR GLRB 211030Z 00000KT 9999 BKN018 30/25 Q1013 NOSIG
As of: 10:30 AM GMT on May 21, 2018
Observed at: Roberts International, Liberia

View Station's History

Local Satellite

Current Satellite Forecast
Region Default Local
No Yes

View Full Screen WunderMap

Forecast

Current Satellite Forecast

Features

Weather Apps

WunderRadio

Weather Underground Apps
Check out our wide variety of mobile and setup applications.

Weather Underground Applications

Top of Page

© Copyright 2018
The Weather Company, LLC